Golden Swift — VRPA6 — position and weather

sailwx.info

Track history (hours):
 
Tides and Currents Weather Stations Pressure Air Temp Water Temp Dewpoint Dewpoint Depression Visibility Wind Speed Wind Dir Waves Ship Positions

Golden Swift

Last reported at 2017-Oct-17 18:58 UTC. Time now 2017-Oct-17 20:35 UTC.
Position S 15°21' E 120°35'.

Length 300 m; draft 18.6 m.

Type: Cargo ship. MMSI: 477713200.

Date/timePositionNaut miles runAvg speedWind from/ knotsBaromVisibWave heightAir tempDewpointWater temp
2017-Oct-17 18:58S 15°21' E 120°35'5911.2
2017-Oct-17 13:45S 16°15' E 120°13'311.3
2017-Oct-17 13:29S 16°18' E 120°12'21210.8
2017-Oct-16 17:50S 19°32' E 118°40'411.2
2017-Oct-16 17:30S 19°35' E 118°38'611.2
2017-Oct-16 17:00S 19°40' E 118°35'611.2
2017-Oct-16 16:28S 19°45' E 118°33'511.1
2017-Oct-16 16:00S 19°50' E 118°30'611.0
2017-Oct-16 15:29S 19°55' E 118°28'511.1
2017-Oct-16 15:00S 20°00' E 118°26'5 9.4
2017-Oct-16 14:30S 20°05' E 118°26'11 9.1
2017-Oct-16 13:17S 20°14' E 118°33'2 7.5
2017-Oct-16 13:00S 20°16' E 118°35'4 0.4
2017-Oct-16 02:25S 20°20' E 118°35'0 0.0
2017-Oct-16 01:37S 20°20' E 118°35'0 0.0
2017-Oct-15 23:25S 20°20' E 118°35'0 0.0
2017-Oct-15 22:49S 20°20' E 118°35'0 0.0
2017-Oct-15 22:19S 20°20' E 118°35'0 0.0
2017-Oct-15 21:43S 20°20' E 118°35'0 0.0
2017-Oct-15 21:13S 20°20' E 118°35'0 0.0
2017-Oct-15 20:49S 20°20' E 118°35'0 0.0
2017-Oct-15 18:13S 20°20' E 118°35'0 0.0
2017-Oct-15 17:43S 20°20' E 118°35'0 0.0
2017-Oct-15 17:19S 20°20' E 118°35'0 0.0
2017-Oct-15 16:55S 20°20' E 118°35'0 0.0
2017-Oct-15 16:01S 20°20' E 118°35'0 0.0
2017-Oct-15 15:55S 20°20' E 118°35'0 0.0
2017-Oct-15 15:01S 20°20' E 118°35'0 0.0
2017-Oct-15 14:49S 20°20' E 118°35'0 0.0
2017-Oct-15 13:55S 20°20' E 118°35'0 0.0
2017-Oct-15 12:31S 20°20' E 118°35'0 0.0
2017-Oct-15 12:13S 20°20' E 118°35'0 0.0
2017-Oct-15 11:55S 20°20' E 118°35'0 0.0
2017-Oct-15 11:01S 20°20' E 118°35'0 0.0
2017-Oct-15 10:43S 20°20' E 118°35'0 0.0
2017-Oct-15 10:25S 20°20' E 118°35'0 0.0
2017-Oct-15 09:43S 20°20' E 118°35'0 0.0
2017-Oct-15 09:19S 20°20' E 118°35'0 0.0
2017-Oct-15 08:49S 20°20' E 118°35'0 0.0
2017-Oct-15 08:19S 20°20' E 118°35'0 0.0
2017-Oct-15 06:13S 20°20' E 118°35'0 0.0
2017-Oct-15 05:13S 20°20' E 118°35'0 0.0
2017-Oct-15 04:07S 20°20' E 118°35'0 0.0
2017-Oct-15 03:55S 20°20' E 118°35'0 0.0
2017-Oct-15 03:25S 20°20' E 118°35'0 0.0
2017-Oct-15 02:37S 20°20' E 118°35'0 0.0
2017-Oct-15 02:25S 20°20' E 118°35'0 0.1
2017-Oct-15 01:56S 20°20' E 118°35'2 3.8
2017-Oct-15 01:29S 20°18' E 118°35'510.4
2017-Oct-15 00:59S 20°13' E 118°33'5 9.5
2017-Oct-15 00:30S 20°08' E 118°33'1 1.7
2017-Oct-14 23:43S 20°07' E 118°34'0 0.0
2017-Oct-14 23:19S 20°07' E 118°34'0 0.0
2017-Oct-14 22:49S 20°07' E 118°34'0 0.0
2017-Oct-14 22:25S 20°07' E 118°34'0 0.0
2017-Oct-14 21:55S 20°07' E 118°34'0 0.0
2017-Oct-14 21:25S 20°07' E 118°34'0 0.0
2017-Oct-14 20:55S 20°07' E 118°34'0 0.0
2017-Oct-14 20:25S 20°07' E 118°34'0 0.0
2017-Oct-14 19:13S 20°07' E 118°34'0 0.0
2017-Oct-14 18:55S 20°07' E 118°34'0 0.0
2017-Oct-14 18:25S 20°07' E 118°34'0 0.0
2017-Oct-14 16:37S 20°07' E 118°34'0 0.0
2017-Oct-14 16:25S 20°07' E 118°34'0 0.0
2017-Oct-14 15:43S 20°07' E 118°34'0 0.0
2017-Oct-14 15:25S 20°07' E 118°34'0 0.0
2017-Oct-14 14:49S 20°07' E 118°34'0 0.0
2017-Oct-14 12:37S 20°07' E 118°34'0 0.0
2017-Oct-14 12:25S 20°07' E 118°34'0 0.0
2017-Oct-14 11:55S 20°07' E 118°34'0 0.0
2017-Oct-14 11:25S 20°07' E 118°34'0 0.0
2017-Oct-14 10:55S 20°07' E 118°34'0 0.0
2017-Oct-14 09:37S 20°07' E 118°34'0 0.1
2017-Oct-14 09:07S 20°07' E 118°34'0 0.1
2017-Oct-14 08:55S 20°07' E 118°34'0 0.0
2017-Oct-14 07:01S 20°07' E 118°34'0 0.1
2017-Oct-14 06:55S 20°07' E 118°34'0 0.0
2017-Oct-14 06:13S 20°07' E 118°34'0 0.0
2017-Oct-14 05:37S 20°07' E 118°34'0 0.0
2017-Oct-14 05:25S 20°07' E 118°34'0 0.0
2017-Oct-14 04:37S 20°07' E 118°34'0 0.0
2017-Oct-14 02:43S 20°07' E 118°34'0 0.0
2017-Oct-14 02:07S 20°07' E 118°34'0 0.3
2017-Oct-14 01:55S 20°07' E 118°34'0 0.1
2017-Oct-14 01:25S 20°07' E 118°34'0 0.1
2017-Oct-14 00:37S 20°07' E 118°34'0 0.0
2017-Oct-14 00:25S 20°07' E 118°34'0 0.0
2017-Oct-13 23:55S 20°07' E 118°34'0 0.0
2017-Oct-13 21:49S 20°07' E 118°34'0 0.0
2017-Oct-13 20:55S 20°07' E 118°34'0 0.0
2017-Oct-13 20:25S 20°07' E 118°34'0 0.0
2017-Oct-13 19:49S 20°07' E 118°34'0 0.1
2017-Oct-13 19:19S 20°07' E 118°34'0 0.0
2017-Oct-13 18:31S 20°07' E 118°34'0 0.0
2017-Oct-13 18:07S 20°07' E 118°34'0 0.3
2017-Oct-13 17:55S 20°07' E 118°34'0 0.0
2017-Oct-13 16:13S 20°07' E 118°34'0 0.0
2017-Oct-13 14:43S 20°07' E 118°34'0 0.2
2017-Oct-13 14:25S 20°07' E 118°34'0 0.0
2017-Oct-13 13:43S 20°07' E 118°34'0 0.0
2017-Oct-13 13:25S 20°07' E 118°34'0 0.0
2017-Oct-13 12:55S 20°07' E 118°34'0 0.1
2017-Oct-13 12:07S 20°07' E 118°34'0 0.0
2017-Oct-13 11:43S 20°07' E 118°34'0 0.0
2017-Oct-13 11:25S 20°07' E 118°34'0 0.0
2017-Oct-13 10:43S 20°07' E 118°34'0 0.1
2017-Oct-13 10:19S 20°07' E 118°34'0 0.0
2017-Oct-13 09:49S 20°07' E 118°34'0 0.0
2017-Oct-13 09:07S 20°07' E 118°34'0 0.0
2017-Oct-13 08:43S 20°07' E 118°34'0 0.2
2017-Oct-13 08:19S 20°07' E 118°34'0 0.1
2017-Oct-13 07:55S 20°07' E 118°34'0 0.0
2017-Oct-13 05:49S 20°07' E 118°34'0 0.0
2017-Oct-13 05:25S 20°07' E 118°34'0 0.0
2017-Oct-12 19:31S 20°07' E 118°34'0 0.0
2017-Oct-12 19:19S 20°07' E 118°34'0 0.0
2017-Oct-12 14:49S 20°07' E 118°34'0 0.0
2017-Oct-12 14:19S 20°07' E 118°34'0 0.0
2017-Oct-12 13:55S 20°07' E 118°34'0 0.0
2017-Oct-12 13:13S 20°07' E 118°34'0 0.0
2017-Oct-12 12:37S 20°07' E 118°34'0 0.0
2017-Oct-12 12:25S 20°07' E 118°34'0 0.1
2017-Oct-12 11:37S 20°07' E 118°34'0 0.1
2017-Oct-12 11:25S 20°07' E 118°34'0 0.1
2017-Oct-12 10:37S 20°07' E 118°34'0 0.0
2017-Oct-12 10:13S 20°07' E 118°34'0 0.1
2017-Oct-12 09:49S 20°07' E 118°34'0 0.0
2017-Oct-12 08:31S 20°07' E 118°34'0 0.0
2017-Oct-12 08:25S 20°07' E 118°34'0 0.0
2017-Oct-12 07:25S 20°07' E 118°34'0 0.1
2017-Oct-12 06:55S 20°07' E 118°34'0 0.0
2017-Oct-12 06:25S 20°07' E 118°34'0 0.1
2017-Oct-12 05:55S 20°07' E 118°34'0 0.0
2017-Oct-12 03:07S 20°07' E 118°34'0 0.0
2017-Oct-12 02:55S 20°07' E 118°34'0 0.0
2017-Oct-12 02:13S 20°07' E 118°34'0 0.0
2017-Oct-12 01:43S 20°07' E 118°34'0 0.1
2017-Oct-12 00:43S 20°07' E 118°34'0 0.2
2017-Oct-12 00:19S 20°07' E 118°34'0 0.1
2017-Oct-11 22:55S 20°07' E 118°34'0 0.1
2017-Oct-11 22:13S 20°07' E 118°34'0 0.6
2017-Oct-11 21:59S 20°07' E 118°34'1 2.4
2017-Oct-11 21:29S 20°06' E 118°33'3 6.1
2017-Oct-11 21:00S 20°03' E 118°33'4 7.7
2017-Oct-11 20:30S 19°60' E 118°30'5 9.3
2017-Oct-11 20:00S 19°56' E 118°29'510.0
2017-Oct-11 19:30S 19°51' E 118°30'3 6.8
2017-Oct-11 19:00S 19°48' E 118°33'4 8.5
2017-Oct-11 18:30S 19°44' E 118°33'611.6
2017-Oct-11 18:00S 19°39' E 118°36'611.8
2017-Oct-11 17:30S 19°34' E 118°38'612.1
2017-Oct-11 17:00S 19°28' E 118°41'20311.9
2017-Oct-10 23:59S 16°26' E 120°14'1411.9
2017-Oct-10 22:49S 16°12' E 120°18'412.0
2017-Oct-10 22:30S 16°09' E 120°19'611.9
2017-Oct-10 22:00S 16°03' E 120°21'  
Track history (hours):
 
Tides and Currents Weather Stations Pressure Air Temp Water Temp Dewpoint Dewpoint Depression Visibility Wind Speed Wind Dir Waves Ship Positions

Golden Swift

Last reported at 2017-Oct-17 18:58 UTC. Time now 2017-Oct-17 20:35 UTC.
Position S 15°21' E 120°35'.

Length 300 m; draft 18.6 m.

Type: Cargo ship. MMSI: 477713200.

Date/timePositionNaut miles runAvg speedWind from/ knotsBaromVisibWave heightAir tempDewpointWater temp
2017-Oct-17 18:58S 15°21' E 120°35'5911.2
2017-Oct-17 13:45S 16°15' E 120°13'311.3
2017-Oct-17 13:29S 16°18' E 120°12'21210.8
2017-Oct-16 17:50S 19°32' E 118°40'411.2
2017-Oct-16 17:30S 19°35' E 118°38'611.2
2017-Oct-16 17:00S 19°40' E 118°35'611.2
2017-Oct-16 16:28S 19°45' E 118°33'511.1
2017-Oct-16 16:00S 19°50' E 118°30'611.0
2017-Oct-16 15:29S 19°55' E 118°28'511.1
2017-Oct-16 15:00S 20°00' E 118°26'5 9.4
2017-Oct-16 14:30S 20°05' E 118°26'11 9.1
2017-Oct-16 13:17S 20°14' E 118°33'2 7.5
2017-Oct-16 13:00S 20°16' E 118°35'4 0.4
2017-Oct-16 02:25S 20°20' E 118°35'0 0.0
2017-Oct-16 01:37S 20°20' E 118°35'0 0.0
2017-Oct-15 23:25S 20°20' E 118°35'0 0.0
2017-Oct-15 22:49S 20°20' E 118°35'0 0.0
2017-Oct-15 22:19S 20°20' E 118°35'0 0.0
2017-Oct-15 21:43S 20°20' E 118°35'0 0.0
2017-Oct-15 21:13S 20°20' E 118°35'0 0.0
2017-Oct-15 20:49S 20°20' E 118°35'0 0.0
2017-Oct-15 18:13S 20°20' E 118°35'0 0.0
2017-Oct-15 17:43S 20°20' E 118°35'0 0.0
2017-Oct-15 17:19S 20°20' E 118°35'0 0.0
2017-Oct-15 16:55S 20°20' E 118°35'0 0.0
2017-Oct-15 16:01S 20°20' E 118°35'0 0.0
2017-Oct-15 15:55S 20°20' E 118°35'0 0.0
2017-Oct-15 15:01S 20°20' E 118°35'0 0.0
2017-Oct-15 14:49S 20°20' E 118°35'0 0.0
2017-Oct-15 13:55S 20°20' E 118°35'0 0.0
2017-Oct-15 12:31S 20°20' E 118°35'0 0.0
2017-Oct-15 12:13S 20°20' E 118°35'0 0.0
2017-Oct-15 11:55S 20°20' E 118°35'0 0.0
2017-Oct-15 11:01S 20°20' E 118°35'0 0.0
2017-Oct-15 10:43S 20°20' E 118°35'0 0.0
2017-Oct-15 10:25S 20°20' E 118°35'0 0.0
2017-Oct-15 09:43S 20°20' E 118°35'0 0.0
2017-Oct-15 09:19S 20°20' E 118°35'0 0.0
2017-Oct-15 08:49S 20°20' E 118°35'0 0.0
2017-Oct-15 08:19S 20°20' E 118°35'0 0.0
2017-Oct-15 06:13S 20°20' E 118°35'0 0.0
2017-Oct-15 05:13S 20°20' E 118°35'0 0.0
2017-Oct-15 04:07S 20°20' E 118°35'0 0.0
2017-Oct-15 03:55S 20°20' E 118°35'0 0.0
2017-Oct-15 03:25S 20°20' E 118°35'0 0.0
2017-Oct-15 02:37S 20°20' E 118°35'0 0.0
2017-Oct-15 02:25S 20°20' E 118°35'0 0.1
2017-Oct-15 01:56S 20°20' E 118°35'2 3.8
2017-Oct-15 01:29S 20°18' E 118°35'510.4
2017-Oct-15 00:59S 20°13' E 118°33'5 9.5
2017-Oct-15 00:30S 20°08' E 118°33'1 1.7
2017-Oct-14 23:43S 20°07' E 118°34'0 0.0
2017-Oct-14 23:19S 20°07' E 118°34'0 0.0
2017-Oct-14 22:49S 20°07' E 118°34'0 0.0
2017-Oct-14 22:25S 20°07' E 118°34'0 0.0
2017-Oct-14 21:55S 20°07' E 118°34'0 0.0
2017-Oct-14 21:25S 20°07' E 118°34'0 0.0
2017-Oct-14 20:55S 20°07' E 118°34'0 0.0
2017-Oct-14 20:25S 20°07' E 118°34'0 0.0
2017-Oct-14 19:13S 20°07' E 118°34'0 0.0
2017-Oct-14 18:55S 20°07' E 118°34'0 0.0
2017-Oct-14 18:25S 20°07' E 118°34'0 0.0
2017-Oct-14 16:37S 20°07' E 118°34'0 0.0
2017-Oct-14 16:25S 20°07' E 118°34'0 0.0
2017-Oct-14 15:43S 20°07' E 118°34'0 0.0
2017-Oct-14 15:25S 20°07' E 118°34'0 0.0
2017-Oct-14 14:49S 20°07' E 118°34'0 0.0
2017-Oct-14 12:37S 20°07' E 118°34'0 0.0
2017-Oct-14 12:25S 20°07' E 118°34'0 0.0
2017-Oct-14 11:55S 20°07' E 118°34'0 0.0
2017-Oct-14 11:25S 20°07' E 118°34'0 0.0
2017-Oct-14 10:55S 20°07' E 118°34'0 0.0
2017-Oct-14 09:37S 20°07' E 118°34'0 0.1
2017-Oct-14 09:07S 20°07' E 118°34'0 0.1
2017-Oct-14 08:55S 20°07' E 118°34'0 0.0
2017-Oct-14 07:01S 20°07' E 118°34'0 0.1
2017-Oct-14 06:55S 20°07' E 118°34'0 0.0
2017-Oct-14 06:13S 20°07' E 118°34'0 0.0
2017-Oct-14 05:37S 20°07' E 118°34'0 0.0
2017-Oct-14 05:25S 20°07' E 118°34'0 0.0
2017-Oct-14 04:37S 20°07' E 118°34'0 0.0
2017-Oct-14 02:43S 20°07' E 118°34'0 0.0
2017-Oct-14 02:07S 20°07' E 118°34'0 0.3
2017-Oct-14 01:55S 20°07' E 118°34'0 0.1
2017-Oct-14 01:25S 20°07' E 118°34'0 0.1
2017-Oct-14 00:37S 20°07' E 118°34'0 0.0
2017-Oct-14 00:25S 20°07' E 118°34'0 0.0
2017-Oct-13 23:55S 20°07' E 118°34'0 0.0
2017-Oct-13 21:49S 20°07' E 118°34'0 0.0
2017-Oct-13 20:55S 20°07' E 118°34'0 0.0
2017-Oct-13 20:25S 20°07' E 118°34'0 0.0
2017-Oct-13 19:49S 20°07' E 118°34'0 0.1
2017-Oct-13 19:19S 20°07' E 118°34'0 0.0
2017-Oct-13 18:31S 20°07' E 118°34'0 0.0
2017-Oct-13 18:07S 20°07' E 118°34'0 0.3
2017-Oct-13 17:55S 20°07' E 118°34'0 0.0
2017-Oct-13 16:13S 20°07' E 118°34'0 0.0
2017-Oct-13 14:43S 20°07' E 118°34'0 0.2
2017-Oct-13 14:25S 20°07' E 118°34'0 0.0
2017-Oct-13 13:43S 20°07' E 118°34'0 0.0
2017-Oct-13 13:25S 20°07' E 118°34'0 0.0
2017-Oct-13 12:55S 20°07' E 118°34'0 0.1
2017-Oct-13 12:07S 20°07' E 118°34'0 0.0
2017-Oct-13 11:43S 20°07' E 118°34'0 0.0
2017-Oct-13 11:25S 20°07' E 118°34'0 0.0
2017-Oct-13 10:43S 20°07' E 118°34'0 0.1
2017-Oct-13 10:19S 20°07' E 118°34'0 0.0
2017-Oct-13 09:49S 20°07' E 118°34'0 0.0
2017-Oct-13 09:07S 20°07' E 118°34'0 0.0
2017-Oct-13 08:43S 20°07' E 118°34'0 0.2
2017-Oct-13 08:19S 20°07' E 118°34'0 0.1
2017-Oct-13 07:55S 20°07' E 118°34'0 0.0
2017-Oct-13 05:49S 20°07' E 118°34'0 0.0
2017-Oct-13 05:25S 20°07' E 118°34'0 0.0
2017-Oct-12 19:31S 20°07' E 118°34'0 0.0
2017-Oct-12 19:19S 20°07' E 118°34'0 0.0
2017-Oct-12 14:49S 20°07' E 118°34'0 0.0
2017-Oct-12 14:19S 20°07' E 118°34'0 0.0
2017-Oct-12 13:55S 20°07' E 118°34'0 0.0
2017-Oct-12 13:13S 20°07' E 118°34'0 0.0
2017-Oct-12 12:37S 20°07' E 118°34'0 0.0
2017-Oct-12 12:25S 20°07' E 118°34'0 0.1
2017-Oct-12 11:37S 20°07' E 118°34'0 0.1
2017-Oct-12 11:25S 20°07' E 118°34'0 0.1
2017-Oct-12 10:37S 20°07' E 118°34'0 0.0
2017-Oct-12 10:13S 20°07' E 118°34'0 0.1
2017-Oct-12 09:49S 20°07' E 118°34'0 0.0
2017-Oct-12 08:31S 20°07' E 118°34'0 0.0
2017-Oct-12 08:25S 20°07' E 118°34'0 0.0
2017-Oct-12 07:25S 20°07' E 118°34'0 0.1
2017-Oct-12 06:55S 20°07' E 118°34'0 0.0
2017-Oct-12 06:25S 20°07' E 118°34'0 0.1
2017-Oct-12 05:55S 20°07' E 118°34'0 0.0
2017-Oct-12 03:07S 20°07' E 118°34'0 0.0
2017-Oct-12 02:55S 20°07' E 118°34'0 0.0
2017-Oct-12 02:13S 20°07' E 118°34'0 0.0
2017-Oct-12 01:43S 20°07' E 118°34'0 0.1
2017-Oct-12 00:43S 20°07' E 118°34'0 0.2
2017-Oct-12 00:19S 20°07' E 118°34'0 0.1
2017-Oct-11 22:55S 20°07' E 118°34'0 0.1
2017-Oct-11 22:13S 20°07' E 118°34'0 0.6
2017-Oct-11 21:59S 20°07' E 118°34'1 2.4
2017-Oct-11 21:29S 20°06' E 118°33'3 6.1
2017-Oct-11 21:00S 20°03' E 118°33'4 7.7
2017-Oct-11 20:30S 19°60' E 118°30'5 9.3
2017-Oct-11 20:00S 19°56' E 118°29'510.0
2017-Oct-11 19:30S 19°51' E 118°30'3 6.8
2017-Oct-11 19:00S 19°48' E 118°33'4 8.5
2017-Oct-11 18:30S 19°44' E 118°33'611.6
2017-Oct-11 18:00S 19°39' E 118°36'611.8
2017-Oct-11 17:30S 19°34' E 118°38'612.1
2017-Oct-11 17:00S 19°28' E 118°41'20311.9
2017-Oct-10 23:59S 16°26' E 120°14'1411.9
2017-Oct-10 22:49S 16°12' E 120°18'412.0
2017-Oct-10 22:30S 16°09' E 120°19'611.9
2017-Oct-10 22:00S 16°03' E 120°21'  

Dump ship's entire track history